Aeroporto :
LOGIN :

Iscrizione | Disclaimer

   EN    FR    IT 

 










Sommario :    VFR   VFR Marginale   IFR   IFR Intensivo   IFR Molto Intensivo
Visibilità : 
Base nubi : 
>= 8 km
>= 3000ft
5 / 8 km
1000 / 3000 ft
1500m / 5 km
500 / 1000 ft
800 / 1500m
200 / 500 ft
< 800m
< 200 ft
Simboli :   Temporali  Nebbia  Neve Forte  Precipitazioni Forti  Vento > 20 kt
SIGMETs :   Varie  Temporali  Ghiacco  Turbolenza  Onda orograficha  Ceneri Vulcaniche






- Altitudine del aeroporto : 341 ft


EPMO - Modlin

ULTIMO METAR :
  • 231630Z 26017KT 9999 BKN037 06/03 Q1020

METARs OBSOLETI :
  • 231600Z 26013KT 9999 FEW025 BKN039 06/03 Q1020
  • 231530Z 27012KT 9999 SCT024 BKN040 06/03 Q1020
  • 231500Z 27017KT 9999 FEW023 BKN039 07/03 Q1020
  • 231430Z 28013KT 9999 BKN021 BKN043 07/04 Q1020
  • 231400Z 27015KT 9999 BKN026 07/04 Q1019

TAF TAF EPMO
Valido dal 23 a 12 ore il 24 a 12 ore UTC


231130Z 2312/2412 26009KT 9999 SCT016 BKN028
TEMPO 2312/2318 27015G27KT -SHRA BKN014 BKN020TCU
PROB40
TEMPO 2318/2323 27015G25KT
TEMPO 2403/2410 BKN009 BKN014



MetMap, La meteo Aeronautica in un colpo d'occhio ! - Copyright ORBIFLY Dicembre 2007 - Disclaimer

ORBIFLY MET'MAP TEAM :

Programmazione e sviluppo : Alexandra Zaïnal
Concezione : Baudouin d'Aumeries
Aiuto per la programmazione : Marc-Olivier Méhu
Supporto tecnico e logistico : Manuel Goepfert
Aiuto per la traduzione : Arnaldo La Scala

Contatto : metmap@orbifly.com




FONTI E CREDITI :

   NOAA